sensor_id;sensor_type;location;lat;lon;timestamp;temperature;humidity
55091;DHT22;40985;53.180;5.800;2023-12-20T00:01:04;5.90;99.90
55091;DHT22;40985;53.180;5.800;2023-12-20T00:03:29;5.80;99.90
55091;DHT22;40985;53.180;5.800;2023-12-20T00:05:55;5.80;99.90
55091;DHT22;40985;53.180;5.800;2023-12-20T00:08:21;5.60;99.90
55091;DHT22;40985;53.180;5.800;2023-12-20T00:10:47;5.60;99.90
55091;DHT22;40985;53.180;5.800;2023-12-20T00:13:12;5.50;99.90
55091;DHT22;40985;53.180;5.800;2023-12-20T00:15:38;5.50;99.90
55091;DHT22;40985;53.180;5.800;2023-12-20T00:18:04;5.40;99.90
55091;DHT22;40985;53.180;5.800;2023-12-20T00:20:29;5.50;99.90
55091;DHT22;40985;53.180;5.800;2023-12-20T00:22:58;5.50;99.90
55091;DHT22;40985;53.180;5.800;2023-12-20T00:25:24;5.50;99.90
55091;DHT22;40985;53.180;5.800;2023-12-20T00:27:50;5.60;99.90
55091;DHT22;40985;53.180;5.800;2023-12-20T00:30:16;5.70;99.90
55091;DHT22;40985;53.180;5.800;2023-12-20T00:32:42;5.70;99.90
55091;DHT22;40985;53.180;5.800;2023-12-20T00:35:14;5.70;99.90
55091;DHT22;40985;53.180;5.800;2023-12-20T00:37:40;5.80;99.90
55091;DHT22;40985;53.180;5.800;2023-12-20T00:40:06;5.80;99.90
55091;DHT22;40985;53.180;5.800;2023-12-20T00:42:33;5.90;99.90
55091;DHT22;40985;53.180;5.800;2023-12-20T00:44:59;5.90;99.90
55091;DHT22;40985;53.180;5.800;2023-12-20T00:47:25;5.90;99.90
55091;DHT22;40985;53.180;5.800;2023-12-20T00:49:51;5.80;99.90
55091;DHT22;40985;53.180;5.800;2023-12-20T00:52:16;5.80;99.90
55091;DHT22;40985;53.180;5.800;2023-12-20T00:54:43;5.80;99.90
55091;DHT22;40985;53.180;5.800;2023-12-20T00:57:09;5.80;99.90
55091;DHT22;40985;53.180;5.800;2023-12-20T00:59:34;5.80;99.90
55091;DHT22;40985;53.180;5.800;2023-12-20T01:02:00;5.90;99.90
55091;DHT22;40985;53.180;5.800;2023-12-20T01:04:26;5.90;99.90
55091;DHT22;40985;53.180;5.800;2023-12-20T01:06:52;6.00;99.90
55091;DHT22;40985;53.180;5.800;2023-12-20T01:09:18;6.20;99.90
55091;DHT22;40985;53.180;5.800;2023-12-20T01:11:44;6.30;99.90
55091;DHT22;40985;53.180;5.800;2023-12-20T01:14:12;6.30;99.90
55091;DHT22;40985;53.180;5.800;2023-12-20T01:16:38;6.30;99.90
55091;DHT22;40985;53.180;5.800;2023-12-20T01:19:03;6.40;99.90
55091;DHT22;40985;53.180;5.800;2023-12-20T01:21:29;6.50;99.90
55091;DHT22;40985;53.180;5.800;2023-12-20T01:23:55;6.50;99.90
55091;DHT22;40985;53.180;5.800;2023-12-20T01:26:21;6.40;99.90
55091;DHT22;40985;53.180;5.800;2023-12-20T01:28:47;6.40;99.90
55091;DHT22;40985;53.180;5.800;2023-12-20T01:31:12;6.60;99.90
55091;DHT22;40985;53.180;5.800;2023-12-20T01:33:38;6.60;99.90
55091;DHT22;40985;53.180;5.800;2023-12-20T01:36:04;6.70;99.90
55091;DHT22;40985;53.180;5.800;2023-12-20T01:38:30;6.70;99.90
55091;DHT22;40985;53.180;5.800;2023-12-20T01:40:55;6.70;99.90
55091;DHT22;40985;53.180;5.800;2023-12-20T01:43:21;6.60;99.90
55091;DHT22;40985;53.180;5.800;2023-12-20T01:45:47;6.60;99.90
55091;DHT22;40985;53.180;5.800;2023-12-20T01:48:14;6.60;99.90
55091;DHT22;40985;53.180;5.800;2023-12-20T01:50:41;6.60;99.90
55091;DHT22;40985;53.180;5.800;2023-12-20T01:53:09;6.60;99.90
55091;DHT22;40985;53.180;5.800;2023-12-20T01:55:39;6.70;99.90
55091;DHT22;40985;53.180;5.800;2023-12-20T01:58:09;6.70;99.90
55091;DHT22;40985;53.180;5.800;2023-12-20T02:00:36;6.70;99.90
55091;DHT22;40985;53.180;5.800;2023-12-20T02:03:03;6.70;99.90
55091;DHT22;40985;53.180;5.800;2023-12-20T02:05:34;6.70;99.90
55091;DHT22;40985;53.180;5.800;2023-12-20T02:08:00;6.80;99.90
55091;DHT22;40985;53.180;5.800;2023-12-20T02:10:26;6.80;99.90
55091;DHT22;40985;53.180;5.800;2023-12-20T02:12:52;6.80;99.90
55091;DHT22;40985;53.180;5.800;2023-12-20T02:15:18;6.80;99.90
55091;DHT22;40985;53.180;5.800;2023-12-20T02:17:45;6.80;99.90
55091;DHT22;40985;53.180;5.800;2023-12-20T02:20:11;6.80;99.90
55091;DHT22;40985;53.180;5.800;2023-12-20T02:22:37;6.80;99.90
55091;DHT22;40985;53.180;5.800;2023-12-20T02:25:03;6.70;99.90
55091;DHT22;40985;53.180;5.800;2023-12-20T02:27:29;6.70;99.90
55091;DHT22;40985;53.180;5.800;2023-12-20T02:29:55;6.70;99.90
55091;DHT22;40985;53.180;5.800;2023-12-20T02:32:22;6.70;99.90
55091;DHT22;40985;53.180;5.800;2023-12-20T02:34:51;6.70;99.90
55091;DHT22;40985;53.180;5.800;2023-12-20T02:37:17;6.70;99.90
55091;DHT22;40985;53.180;5.800;2023-12-20T02:39:43;6.60;99.90
55091;DHT22;40985;53.180;5.800;2023-12-20T02:42:08;6.60;99.90
55091;DHT22;40985;53.180;5.800;2023-12-20T02:44:34;6.70;99.90
55091;DHT22;40985;53.180;5.800;2023-12-20T02:47:00;6.80;99.90
55091;DHT22;40985;53.180;5.800;2023-12-20T02:49:25;6.70;99.90
55091;DHT22;40985;53.180;5.800;2023-12-20T02:51:51;6.80;99.90
55091;DHT22;40985;53.180;5.800;2023-12-20T02:54:17;6.80;99.90
55091;DHT22;40985;53.180;5.800;2023-12-20T02:56:42;6.70;99.90
55091;DHT22;40985;53.180;5.800;2023-12-20T02:59:08;6.70;99.90
55091;DHT22;40985;53.180;5.800;2023-12-20T03:01:35;6.60;99.90
55091;DHT22;40985;53.180;5.800;2023-12-20T03:04:01;6.50;99.90
55091;DHT22;40985;53.180;5.800;2023-12-20T03:06:27;6.60;99.90
55091;DHT22;40985;53.180;5.800;2023-12-20T03:08:52;6.60;99.90
55091;DHT22;40985;53.180;5.800;2023-12-20T03:11:18;6.60;99.90
55091;DHT22;40985;53.180;5.800;2023-12-20T03:13:44;6.80;99.90
55091;DHT22;40985;53.180;5.800;2023-12-20T03:16:11;6.80;99.90
55091;DHT22;40985;53.180;5.800;2023-12-20T03:18:37;6.80;99.90
55091;DHT22;40985;53.180;5.800;2023-12-20T03:21:03;6.80;99.90
55091;DHT22;40985;53.180;5.800;2023-12-20T03:23:29;6.80;99.90
55091;DHT22;40985;53.180;5.800;2023-12-20T03:25:56;6.90;99.90
55091;DHT22;40985;53.180;5.800;2023-12-20T03:28:22;6.90;99.90
55091;DHT22;40985;53.180;5.800;2023-12-20T03:30:48;6.90;99.90
55091;DHT22;40985;53.180;5.800;2023-12-20T03:33:14;6.90;99.90
55091;DHT22;40985;53.180;5.800;2023-12-20T03:35:40;7.00;99.90
55091;DHT22;40985;53.180;5.800;2023-12-20T03:38:05;7.00;99.90
55091;DHT22;40985;53.180;5.800;2023-12-20T03:40:31;7.00;99.90
55091;DHT22;40985;53.180;5.800;2023-12-20T03:42:57;6.90;99.90
55091;DHT22;40985;53.180;5.800;2023-12-20T03:45:22;6.90;99.90
55091;DHT22;40985;53.180;5.800;2023-12-20T03:47:48;6.90;99.90
55091;DHT22;40985;53.180;5.800;2023-12-20T03:50:15;6.90;99.90
55091;DHT22;40985;53.180;5.800;2023-12-20T03:52:40;6.90;99.90
55091;DHT22;40985;53.180;5.800;2023-12-20T03:55:06;7.00;99.90
55091;DHT22;40985;53.180;5.800;2023-12-20T03:57:32;7.00;99.90
55091;DHT22;40985;53.180;5.800;2023-12-20T03:59:57;7.00;99.90
55091;DHT22;40985;53.180;5.800;2023-12-20T04:02:23;7.00;99.90
55091;DHT22;40985;53.180;5.800;2023-12-20T04:04:49;7.00;99.90
55091;DHT22;40985;53.180;5.800;2023-12-20T04:07:14;7.10;99.90
55091;DHT22;40985;53.180;5.800;2023-12-20T04:09:41;7.00;99.90
55091;DHT22;40985;53.180;5.800;2023-12-20T04:12:07;7.00;99.90
55091;DHT22;40985;53.180;5.800;2023-12-20T04:14:32;7.00;99.90
55091;DHT22;40985;53.180;5.800;2023-12-20T04:16:58;7.00;99.90
55091;DHT22;40985;53.180;5.800;2023-12-20T04:19:24;7.00;99.90
55091;DHT22;40985;53.180;5.800;2023-12-20T04:21:49;7.00;99.90
55091;DHT22;40985;53.180;5.800;2023-12-20T04:24:15;7.00;99.90
55091;DHT22;40985;53.180;5.800;2023-12-20T04:26:41;7.00;99.90
55091;DHT22;40985;53.180;5.800;2023-12-20T04:29:07;7.00;99.90
55091;DHT22;40985;53.180;5.800;2023-12-20T04:31:32;7.00;99.90
55091;DHT22;40985;53.180;5.800;2023-12-20T04:33:58;7.00;99.90
55091;DHT22;40985;53.180;5.800;2023-12-20T04:36:24;7.00;99.90
55091;DHT22;40985;53.180;5.800;2023-12-20T04:38:53;7.10;99.90
55091;DHT22;40985;53.180;5.800;2023-12-20T04:41:18;7.10;99.90
55091;DHT22;40985;53.180;5.800;2023-12-20T04:43:44;7.10;99.90
55091;DHT22;40985;53.180;5.800;2023-12-20T04:46:10;7.10;99.90
55091;DHT22;40985;53.180;5.800;2023-12-20T04:48:36;7.10;99.90
55091;DHT22;40985;53.180;5.800;2023-12-20T04:51:02;7.10;99.90
55091;DHT22;40985;53.180;5.800;2023-12-20T04:53:28;7.20;99.90
55091;DHT22;40985;53.180;5.800;2023-12-20T04:55:53;7.20;99.90
55091;DHT22;40985;53.180;5.800;2023-12-20T04:58:19;7.20;99.90
55091;DHT22;40985;53.180;5.800;2023-12-20T05:00:45;7.20;99.90
55091;DHT22;40985;53.180;5.800;2023-12-20T05:03:10;7.20;99.90
55091;DHT22;40985;53.180;5.800;2023-12-20T05:05:36;7.20;99.90
55091;DHT22;40985;53.180;5.800;2023-12-20T05:08:02;7.20;99.90
55091;DHT22;40985;53.180;5.800;2023-12-20T05:10:28;7.30;99.90
55091;DHT22;40985;53.180;5.800;2023-12-20T05:12:53;7.20;99.90
55091;DHT22;40985;53.180;5.800;2023-12-20T05:15:19;7.30;99.90
55091;DHT22;40985;53.180;5.800;2023-12-20T05:17:44;7.30;99.90
55091;DHT22;40985;53.180;5.800;2023-12-20T05:20:10;7.30;99.90
55091;DHT22;40985;53.180;5.800;2023-12-20T05:22:36;7.30;99.90
55091;DHT22;40985;53.180;5.800;2023-12-20T05:25:02;7.30;99.90
55091;DHT22;40985;53.180;5.800;2023-12-20T05:27:27;7.30;99.90
55091;DHT22;40985;53.180;5.800;2023-12-20T05:29:53;7.30;99.90
55091;DHT22;40985;53.180;5.800;2023-12-20T05:32:23;7.30;99.90
55091;DHT22;40985;53.180;5.800;2023-12-20T05:34:49;7.30;99.90
55091;DHT22;40985;53.180;5.800;2023-12-20T05:37:14;7.30;99.90
55091;DHT22;40985;53.180;5.800;2023-12-20T05:39:40;7.40;99.90
55091;DHT22;40985;53.180;5.800;2023-12-20T05:42:06;7.40;99.90
55091;DHT22;40985;53.180;5.800;2023-12-20T05:44:31;7.30;99.90
55091;DHT22;40985;53.180;5.800;2023-12-20T05:46:57;7.30;99.90
55091;DHT22;40985;53.180;5.800;2023-12-20T05:49:23;7.40;99.90
55091;DHT22;40985;53.180;5.800;2023-12-20T05:51:48;7.40;99.90
55091;DHT22;40985;53.180;5.800;2023-12-20T05:54:15;7.40;99.90
55091;DHT22;40985;53.180;5.800;2023-12-20T05:56:41;7.30;99.90
55091;DHT22;40985;53.180;5.800;2023-12-20T05:59:06;7.40;99.90
55091;DHT22;40985;53.180;5.800;2023-12-20T06:01:32;7.40;99.90
55091;DHT22;40985;53.180;5.800;2023-12-20T06:03:58;7.50;99.90
55091;DHT22;40985;53.180;5.800;2023-12-20T06:06:23;7.50;99.90
55091;DHT22;40985;53.180;5.800;2023-12-20T06:08:49;7.50;99.90
55091;DHT22;40985;53.180;5.800;2023-12-20T06:11:15;7.40;99.90
55091;DHT22;40985;53.180;5.800;2023-12-20T06:13:41;7.50;99.90
55091;DHT22;40985;53.180;5.800;2023-12-20T06:16:06;7.50;99.90
55091;DHT22;40985;53.180;5.800;2023-12-20T06:18:35;7.40;99.90
55091;DHT22;40985;53.180;5.800;2023-12-20T06:21:02;7.50;99.90
55091;DHT22;40985;53.180;5.800;2023-12-20T06:23:28;7.50;99.90
55091;DHT22;40985;53.180;5.800;2023-12-20T06:25:54;7.50;99.90
55091;DHT22;40985;53.180;5.800;2023-12-20T06:28:19;7.50;99.90
55091;DHT22;40985;53.180;5.800;2023-12-20T06:30:45;7.60;99.90
55091;DHT22;40985;53.180;5.800;2023-12-20T06:33:12;7.60;99.90
55091;DHT22;40985;53.180;5.800;2023-12-20T06:35:39;7.60;99.90
55091;DHT22;40985;53.180;5.800;2023-12-20T06:38:04;7.60;99.90
55091;DHT22;40985;53.180;5.800;2023-12-20T06:40:30;7.60;99.90
55091;DHT22;40985;53.180;5.800;2023-12-20T06:42:56;7.50;99.90
55091;DHT22;40985;53.180;5.800;2023-12-20T06:45:21;7.50;99.90
55091;DHT22;40985;53.180;5.800;2023-12-20T06:47:47;7.50;99.90
55091;DHT22;40985;53.180;5.800;2023-12-20T06:50:13;7.50;99.90
55091;DHT22;40985;53.180;5.800;2023-12-20T06:52:39;7.50;99.90
55091;DHT22;40985;53.180;5.800;2023-12-20T06:55:05;7.50;99.90
55091;DHT22;40985;53.180;5.800;2023-12-20T06:57:31;7.50;99.90
55091;DHT22;40985;53.180;5.800;2023-12-20T06:59:56;7.60;99.90
55091;DHT22;40985;53.180;5.800;2023-12-20T07:02:23;7.50;99.90
55091;DHT22;40985;53.180;5.800;2023-12-20T07:04:49;7.50;99.90
55091;DHT22;40985;53.180;5.800;2023-12-20T07:07:14;7.40;99.90
55091;DHT22;40985;53.180;5.800;2023-12-20T07:09:40;7.40;99.90
55091;DHT22;40985;53.180;5.800;2023-12-20T07:12:08;7.40;99.90
55091;DHT22;40985;53.180;5.800;2023-12-20T07:14:34;7.30;99.90
55091;DHT22;40985;53.180;5.800;2023-12-20T07:17:00;7.30;99.90
55091;DHT22;40985;53.180;5.800;2023-12-20T07:19:26;7.30;99.90
55091;DHT22;40985;53.180;5.800;2023-12-20T07:21:51;7.30;99.90
55091;DHT22;40985;53.180;5.800;2023-12-20T07:24:17;7.30;99.90
55091;DHT22;40985;53.180;5.800;2023-12-20T07:26:43;7.30;99.90
55091;DHT22;40985;53.180;5.800;2023-12-20T07:29:08;7.40;99.90
55091;DHT22;40985;53.180;5.800;2023-12-20T07:31:34;7.50;99.90
55091;DHT22;40985;53.180;5.800;2023-12-20T07:34:00;7.50;99.90
55091;DHT22;40985;53.180;5.800;2023-12-20T07:36:26;7.50;99.90
55091;DHT22;40985;53.180;5.800;2023-12-20T07:38:51;7.50;99.90
55091;DHT22;40985;53.180;5.800;2023-12-20T07:41:17;7.60;99.90
55091;DHT22;40985;53.180;5.800;2023-12-20T07:43:44;7.50;99.90
55091;DHT22;40985;53.180;5.800;2023-12-20T07:46:10;7.50;99.90
55091;DHT22;40985;53.180;5.800;2023-12-20T07:48:35;7.60;99.90
55091;DHT22;40985;53.180;5.800;2023-12-20T07:51:02;7.50;99.90
55091;DHT22;40985;53.180;5.800;2023-12-20T07:53:28;7.50;99.90
55091;DHT22;40985;53.180;5.800;2023-12-20T07:55:53;7.50;99.90
55091;DHT22;40985;53.180;5.800;2023-12-20T07:58:19;7.00;99.90
55091;DHT22;40985;53.180;5.800;2023-12-20T08:00:45;6.60;99.90
55091;DHT22;40985;53.180;5.800;2023-12-20T08:03:11;6.50;99.90
55091;DHT22;40985;53.180;5.800;2023-12-20T08:05:37;6.40;99.90
55091;DHT22;40985;53.180;5.800;2023-12-20T08:08:05;6.60;99.90
55091;DHT22;40985;53.180;5.800;2023-12-20T08:10:30;6.70;99.90
55091;DHT22;40985;53.180;5.800;2023-12-20T08:12:56;6.80;99.90
55091;DHT22;40985;53.180;5.800;2023-12-20T08:15:22;7.00;99.90
55091;DHT22;40985;53.180;5.800;2023-12-20T08:17:48;7.00;99.90
55091;DHT22;40985;53.180;5.800;2023-12-20T08:20:13;7.10;99.90
55091;DHT22;40985;53.180;5.800;2023-12-20T08:22:39;7.00;99.90
55091;DHT22;40985;53.180;5.800;2023-12-20T08:25:05;7.10;99.90
55091;DHT22;40985;53.180;5.800;2023-12-20T08:27:30;7.20;99.90
55091;DHT22;40985;53.180;5.800;2023-12-20T08:29:57;7.30;99.90
55091;DHT22;40985;53.180;5.800;2023-12-20T08:32:25;7.30;99.90
55091;DHT22;40985;53.180;5.800;2023-12-20T08:34:52;7.30;99.90
55091;DHT22;40985;53.180;5.800;2023-12-20T08:37:17;7.40;99.90
55091;DHT22;40985;53.180;5.800;2023-12-20T08:39:43;7.50;99.90
55091;DHT22;40985;53.180;5.800;2023-12-20T08:42:09;7.50;99.90
55091;DHT22;40985;53.180;5.800;2023-12-20T08:44:35;7.50;99.90
55091;DHT22;40985;53.180;5.800;2023-12-20T08:47:01;7.50;99.90
55091;DHT22;40985;53.180;5.800;2023-12-20T08:49:27;7.50;99.90
55091;DHT22;40985;53.180;5.800;2023-12-20T08:51:53;7.60;99.90
55091;DHT22;40985;53.180;5.800;2023-12-20T08:54:19;7.60;99.90
55091;DHT22;40985;53.180;5.800;2023-12-20T08:56:45;7.60;99.90
55091;DHT22;40985;53.180;5.800;2023-12-20T08:59:11;7.20;99.90
55091;DHT22;40985;53.180;5.800;2023-12-20T09:01:37;6.80;99.90
55091;DHT22;40985;53.180;5.800;2023-12-20T09:04:03;6.50;99.90
55091;DHT22;40985;53.180;5.800;2023-12-20T09:06:29;6.20;99.90
55091;DHT22;40985;53.180;5.800;2023-12-20T09:08:54;6.10;99.90
55091;DHT22;40985;53.180;5.800;2023-12-20T09:11:20;6.00;99.90
55091;DHT22;40985;53.180;5.800;2023-12-20T09:13:45;5.90;99.90
55091;DHT22;40985;53.180;5.800;2023-12-20T09:16:11;5.80;99.90
55091;DHT22;40985;53.180;5.800;2023-12-20T09:18:38;5.80;99.90
55091;DHT22;40985;53.180;5.800;2023-12-20T09:21:04;5.80;99.90
55091;DHT22;40985;53.180;5.800;2023-12-20T09:23:30;5.70;99.90
55091;DHT22;40985;53.180;5.800;2023-12-20T09:25:55;5.70;99.90
55091;DHT22;40985;53.180;5.800;2023-12-20T09:28:21;5.60;99.90
55091;DHT22;40985;53.180;5.800;2023-12-20T09:30:47;5.60;99.90
55091;DHT22;40985;53.180;5.800;2023-12-20T09:33:13;5.60;99.90
55091;DHT22;40985;53.180;5.800;2023-12-20T09:35:39;5.70;99.90
55091;DHT22;40985;53.180;5.800;2023-12-20T09:38:05;5.70;99.90
55091;DHT22;40985;53.180;5.800;2023-12-20T09:40:32;5.80;99.90
55091;DHT22;40985;53.180;5.800;2023-12-20T09:43:10;5.90;99.90
55091;DHT22;40985;53.180;5.800;2023-12-20T09:45:36;5.90;99.90
55091;DHT22;40985;53.180;5.800;2023-12-20T09:48:03;6.00;99.90
55091;DHT22;40985;53.180;5.800;2023-12-20T09:50:30;6.00;99.90
55091;DHT22;40985;53.180;5.800;2023-12-20T09:52:58;6.00;99.90
55091;DHT22;40985;53.180;5.800;2023-12-20T09:55:25;6.00;99.90
55091;DHT22;40985;53.180;5.800;2023-12-20T09:57:52;6.00;99.90
55091;DHT22;40985;53.180;5.800;2023-12-20T10:00:18;5.90;99.90
55091;DHT22;40985;53.180;5.800;2023-12-20T10:03:00;6.00;99.90
55091;DHT22;40985;53.180;5.800;2023-12-20T10:05:30;6.00;99.90
55091;DHT22;40985;53.180;5.800;2023-12-20T10:07:56;6.10;99.90
55091;DHT22;40985;53.180;5.800;2023-12-20T10:10:22;6.20;99.90
55091;DHT22;40985;53.180;5.800;2023-12-20T10:13:09;6.30;99.90
55091;DHT22;40985;53.180;5.800;2023-12-20T10:15:36;6.40;99.90
55091;DHT22;40985;53.180;5.800;2023-12-20T10:18:02;6.50;99.90
55091;DHT22;40985;53.180;5.800;2023-12-20T10:20:29;6.50;99.90
55091;DHT22;40985;53.180;5.800;2023-12-20T10:22:59;6.50;99.90
55091;DHT22;40985;53.180;5.800;2023-12-20T10:25:25;6.50;99.90
55091;DHT22;40985;53.180;5.800;2023-12-20T10:28:15;6.70;99.90
55091;DHT22;40985;53.180;5.800;2023-12-20T10:30:45;6.70;99.90
55091;DHT22;40985;53.180;5.800;2023-12-20T10:33:11;6.70;99.90
55091;DHT22;40985;53.180;5.800;2023-12-20T10:35:37;6.70;99.90
55091;DHT22;40985;53.180;5.800;2023-12-20T10:38:04;6.80;99.90
55091;DHT22;40985;53.180;5.800;2023-12-20T10:40:31;6.80;99.90
55091;DHT22;40985;53.180;5.800;2023-12-20T10:42:59;6.90;99.90
55091;DHT22;40985;53.180;5.800;2023-12-20T10:45:26;6.90;99.90
55091;DHT22;40985;53.180;5.800;2023-12-20T10:47:52;6.90;99.90
55091;DHT22;40985;53.180;5.800;2023-12-20T10:50:19;6.90;99.90
55091;DHT22;40985;53.180;5.800;2023-12-20T10:52:47;6.90;99.90
55091;DHT22;40985;53.180;5.800;2023-12-20T10:55:13;7.00;99.90
55091;DHT22;40985;53.180;5.800;2023-12-20T10:57:39;7.00;99.90
55091;DHT22;40985;53.180;5.800;2023-12-20T11:00:08;7.00;99.90
55091;DHT22;40985;53.180;5.800;2023-12-20T11:02:39;7.10;99.90
55091;DHT22;40985;53.180;5.800;2023-12-20T11:08:05;7.10;99.90
55091;DHT22;40985;53.180;5.800;2023-12-20T11:13:12;7.20;99.90
55091;DHT22;40985;53.180;5.800;2023-12-20T11:15:42;7.20;99.90
55091;DHT22;40985;53.180;5.800;2023-12-20T11:18:09;7.30;99.90
55091;DHT22;40985;53.180;5.800;2023-12-20T11:20:41;7.30;99.90
55091;DHT22;40985;53.180;5.800;2023-12-20T11:23:10;7.40;99.90
55091;DHT22;40985;53.180;5.800;2023-12-20T11:26:08;7.40;99.90
55091;DHT22;40985;53.180;5.800;2023-12-20T11:28:34;7.50;99.90
55091;DHT22;40985;53.180;5.800;2023-12-20T11:31:01;7.60;99.90
55091;DHT22;40985;53.180;5.800;2023-12-20T11:33:37;7.50;99.90
55091;DHT22;40985;53.180;5.800;2023-12-20T11:36:07;7.60;99.90
55091;DHT22;40985;53.180;5.800;2023-12-20T11:38:37;7.60;99.90
55091;DHT22;40985;53.180;5.800;2023-12-20T11:41:06;7.60;99.90
55091;DHT22;40985;53.180;5.800;2023-12-20T11:43:34;7.60;99.90
55091;DHT22;40985;53.180;5.800;2023-12-20T11:46:08;7.50;99.90
55091;DHT22;40985;53.180;5.800;2023-12-20T11:48:39;7.50;99.90
55091;DHT22;40985;53.180;5.800;2023-12-20T11:51:12;7.60;99.90
55091;DHT22;40985;53.180;5.800;2023-12-20T11:53:41;7.50;99.90
55091;DHT22;40985;53.180;5.800;2023-12-20T11:56:10;7.50;99.90
55091;DHT22;40985;53.180;5.800;2023-12-20T11:58:36;7.50;99.90
55091;DHT22;40985;53.180;5.800;2023-12-20T12:01:02;7.40;99.90
55091;DHT22;40985;53.180;5.800;2023-12-20T12:03:29;7.40;99.90
55091;DHT22;40985;53.180;5.800;2023-12-20T12:05:55;7.40;99.90
55091;DHT22;40985;53.180;5.800;2023-12-20T12:08:21;7.30;99.90
55091;DHT22;40985;53.180;5.800;2023-12-20T12:10:47;7.30;99.90
55091;DHT22;40985;53.180;5.800;2023-12-20T12:13:13;7.30;99.90
55091;DHT22;40985;53.180;5.800;2023-12-20T12:15:39;7.30;99.90
55091;DHT22;40985;53.180;5.800;2023-12-20T12:18:07;7.20;99.90
55091;DHT22;40985;53.180;5.800;2023-12-20T12:20:33;7.20;99.90
55091;DHT22;40985;53.180;5.800;2023-12-20T12:23:05;7.10;99.90
55091;DHT22;40985;53.180;5.800;2023-12-20T12:25:34;7.10;99.90
55091;DHT22;40985;53.180;5.800;2023-12-20T12:28:01;7.00;99.90
55091;DHT22;40985;53.180;5.800;2023-12-20T12:30:27;6.80;99.90
55091;DHT22;40985;53.180;5.800;2023-12-20T12:32:53;6.80;99.90
55091;DHT22;40985;53.180;5.800;2023-12-20T12:35:21;6.70;99.90
55091;DHT22;40985;53.180;5.800;2023-12-20T12:37:47;6.70;99.90
55091;DHT22;40985;53.180;5.800;2023-12-20T12:40:13;6.60;99.90
55091;DHT22;40985;53.180;5.800;2023-12-20T12:42:40;6.60;99.90
55091;DHT22;40985;53.180;5.800;2023-12-20T12:45:06;6.50;99.90
55091;DHT22;40985;53.180;5.800;2023-12-20T12:47:33;6.50;99.90
55091;DHT22;40985;53.180;5.800;2023-12-20T12:49:59;6.50;99.90
55091;DHT22;40985;53.180;5.800;2023-12-20T12:52:24;6.40;99.90
55091;DHT22;40985;53.180;5.800;2023-12-20T12:54:52;6.40;99.90
55091;DHT22;40985;53.180;5.800;2023-12-20T12:57:18;6.40;99.90
55091;DHT22;40985;53.180;5.800;2023-12-20T12:59:44;6.30;99.90
55091;DHT22;40985;53.180;5.800;2023-12-20T13:02:14;6.30;99.90
55091;DHT22;40985;53.180;5.800;2023-12-20T13:04:41;6.30;99.90
55091;DHT22;40985;53.180;5.800;2023-12-20T13:07:07;6.30;99.90
55091;DHT22;40985;53.180;5.800;2023-12-20T13:09:36;6.20;99.90
55091;DHT22;40985;53.180;5.800;2023-12-20T13:12:02;6.20;99.90
55091;DHT22;40985;53.180;5.800;2023-12-20T13:14:31;6.20;99.90
55091;DHT22;40985;53.180;5.800;2023-12-20T13:16:58;6.20;99.90
55091;DHT22;40985;53.180;5.800;2023-12-20T13:19:24;6.10;99.90
55091;DHT22;40985;53.180;5.800;2023-12-20T13:21:49;6.20;99.90
55091;DHT22;40985;53.180;5.800;2023-12-20T13:24:15;6.10;99.90
55091;DHT22;40985;53.180;5.800;2023-12-20T13:26:41;6.10;99.90
55091;DHT22;40985;53.180;5.800;2023-12-20T13:29:07;6.10;99.90
55091;DHT22;40985;53.180;5.800;2023-12-20T13:31:32;6.10;99.90
55091;DHT22;40985;53.180;5.800;2023-12-20T13:33:58;6.10;99.90
55091;DHT22;40985;53.180;5.800;2023-12-20T13:36:24;6.10;99.90
55091;DHT22;40985;53.180;5.800;2023-12-20T13:38:49;6.10;99.90
55091;DHT22;40985;53.180;5.800;2023-12-20T13:41:15;6.10;99.90
55091;DHT22;40985;53.180;5.800;2023-12-20T13:43:41;6.10;99.90
55091;DHT22;40985;53.180;5.800;2023-12-20T13:46:08;6.10;99.90
55091;DHT22;40985;53.180;5.800;2023-12-20T13:48:34;6.00;99.90
55091;DHT22;40985;53.180;5.800;2023-12-20T13:51:00;6.10;99.90
55091;DHT22;40985;53.180;5.800;2023-12-20T13:53:28;6.10;99.90
55091;DHT22;40985;53.180;5.800;2023-12-20T13:55:54;6.10;99.90
55091;DHT22;40985;53.180;5.800;2023-12-20T13:58:19;6.10;99.90
55091;DHT22;40985;53.180;5.800;2023-12-20T14:00:46;6.10;99.90
55091;DHT22;40985;53.180;5.800;2023-12-20T14:03:11;6.10;99.90
55091;DHT22;40985;53.180;5.800;2023-12-20T14:05:37;6.10;99.90
55091;DHT22;40985;53.180;5.800;2023-12-20T14:08:03;6.10;99.90
55091;DHT22;40985;53.180;5.800;2023-12-20T14:10:29;6.10;99.90
55091;DHT22;40985;53.180;5.800;2023-12-20T14:12:55;6.10;99.90
55091;DHT22;40985;53.180;5.800;2023-12-20T14:15:21;6.10;99.90
55091;DHT22;40985;53.180;5.800;2023-12-20T14:17:47;6.10;99.90
55091;DHT22;40985;53.180;5.800;2023-12-20T14:20:13;6.10;99.90
55091;DHT22;40985;53.180;5.800;2023-12-20T14:22:38;6.10;99.90
55091;DHT22;40985;53.180;5.800;2023-12-20T14:25:11;6.10;99.90
55091;DHT22;40985;53.180;5.800;2023-12-20T14:27:38;6.10;99.90
55091;DHT22;40985;53.180;5.800;2023-12-20T14:30:04;6.30;99.90
55091;DHT22;40985;53.180;5.800;2023-12-20T14:32:31;6.30;99.90
55091;DHT22;40985;53.180;5.800;2023-12-20T14:34:57;6.30;99.90
55091;DHT22;40985;53.180;5.800;2023-12-20T14:37:22;6.40;99.90
55091;DHT22;40985;53.180;5.800;2023-12-20T14:39:48;6.50;99.90
55091;DHT22;40985;53.180;5.800;2023-12-20T14:42:14;6.70;99.90
55091;DHT22;40985;53.180;5.800;2023-12-20T14:44:40;6.70;99.90
55091;DHT22;40985;53.180;5.800;2023-12-20T14:47:06;6.90;99.90
55091;DHT22;40985;53.180;5.800;2023-12-20T14:49:32;6.90;99.90
55091;DHT22;40985;53.180;5.800;2023-12-20T14:51:58;7.00;99.90
55091;DHT22;40985;53.180;5.800;2023-12-20T14:54:24;7.00;99.90
55091;DHT22;40985;53.180;5.800;2023-12-20T14:56:50;7.00;99.90
55091;DHT22;40985;53.180;5.800;2023-12-20T14:59:15;7.00;99.90
55091;DHT22;40985;53.180;5.800;2023-12-20T15:01:41;7.10;99.90
55091;DHT22;40985;53.180;5.800;2023-12-20T15:04:08;7.10;99.90
55091;DHT22;40985;53.180;5.800;2023-12-20T15:06:34;7.10;99.90
55091;DHT22;40985;53.180;5.800;2023-12-20T15:09:00;7.10;99.90
55091;DHT22;40985;53.180;5.800;2023-12-20T15:11:26;7.10;99.90
55091;DHT22;40985;53.180;5.800;2023-12-20T15:13:52;7.10;99.90
55091;DHT22;40985;53.180;5.800;2023-12-20T15:16:24;7.20;99.90
55091;DHT22;40985;53.180;5.800;2023-12-20T15:18:51;7.20;99.90
55091;DHT22;40985;53.180;5.800;2023-12-20T15:21:17;7.20;99.90
55091;DHT22;40985;53.180;5.800;2023-12-20T15:23:43;7.20;99.90
55091;DHT22;40985;53.180;5.800;2023-12-20T15:26:18;7.10;99.90
55091;DHT22;40985;53.180;5.800;2023-12-20T15:28:45;7.10;99.90
55091;DHT22;40985;53.180;5.800;2023-12-20T15:31:10;7.10;99.90
55091;DHT22;40985;53.180;5.800;2023-12-20T15:33:37;7.10;99.90
55091;DHT22;40985;53.180;5.800;2023-12-20T15:36:03;7.00;99.90
55091;DHT22;40985;53.180;5.800;2023-12-20T15:38:29;7.00;99.90
55091;DHT22;40985;53.180;5.800;2023-12-20T15:40:55;7.10;99.90
55091;DHT22;40985;53.180;5.800;2023-12-20T15:43:21;7.00;99.90
55091;DHT22;40985;53.180;5.800;2023-12-20T15:45:46;7.10;99.90